sensor_id;sensor_type;location;lat;lon;timestamp;temperature;humidity
46336;DHT22;31365;48.858;8.530;2023-10-31T00:02:18;11.40;99.90
46336;DHT22;31365;48.858;8.530;2023-10-31T00:04:47;11.40;99.90
46336;DHT22;31365;48.858;8.530;2023-10-31T00:07:15;11.30;99.90
46336;DHT22;31365;48.858;8.530;2023-10-31T00:09:43;11.30;99.90
46336;DHT22;31365;48.858;8.530;2023-10-31T00:12:13;11.20;99.90
46336;DHT22;31365;48.858;8.530;2023-10-31T00:14:42;11.20;99.90
46336;DHT22;31365;48.858;8.530;2023-10-31T00:17:10;11.20;99.90
46336;DHT22;31365;48.858;8.530;2023-10-31T00:19:39;11.20;99.90
46336;DHT22;31365;48.858;8.530;2023-10-31T00:22:07;11.10;99.90
46336;DHT22;31365;48.858;8.530;2023-10-31T00:24:35;11.10;99.90
46336;DHT22;31365;48.858;8.530;2023-10-31T00:27:04;11.10;99.90
46336;DHT22;31365;48.858;8.530;2023-10-31T00:29:34;11.10;99.90
46336;DHT22;31365;48.858;8.530;2023-10-31T00:32:02;11.10;99.90
46336;DHT22;31365;48.858;8.530;2023-10-31T00:34:33;11.10;99.90
46336;DHT22;31365;48.858;8.530;2023-10-31T00:37:03;11.10;99.90
46336;DHT22;31365;48.858;8.530;2023-10-31T00:39:31;11.10;99.90
46336;DHT22;31365;48.858;8.530;2023-10-31T00:42:00;11.10;99.90
46336;DHT22;31365;48.858;8.530;2023-10-31T00:44:29;11.10;99.90
46336;DHT22;31365;48.858;8.530;2023-10-31T00:46:59;11.10;99.90
46336;DHT22;31365;48.858;8.530;2023-10-31T00:49:28;11.10;99.90
46336;DHT22;31365;48.858;8.530;2023-10-31T00:51:58;11.10;99.90
46336;DHT22;31365;48.858;8.530;2023-10-31T00:54:26;11.10;99.90
46336;DHT22;31365;48.858;8.530;2023-10-31T00:56:59;11.10;99.90
46336;DHT22;31365;48.858;8.530;2023-10-31T00:59:28;11.10;99.90
46336;DHT22;31365;48.858;8.530;2023-10-31T01:01:56;11.00;99.90
46336;DHT22;31365;48.858;8.530;2023-10-31T01:04:26;11.00;99.90
46336;DHT22;31365;48.858;8.530;2023-10-31T01:06:54;11.00;99.90
46336;DHT22;31365;48.858;8.530;2023-10-31T01:09:22;11.00;99.90
46336;DHT22;31365;48.858;8.530;2023-10-31T01:11:50;11.00;99.90
46336;DHT22;31365;48.858;8.530;2023-10-31T01:14:19;11.10;99.90
46336;DHT22;31365;48.858;8.530;2023-10-31T01:16:47;11.10;99.90
46336;DHT22;31365;48.858;8.530;2023-10-31T01:19:16;11.20;99.90
46336;DHT22;31365;48.858;8.530;2023-10-31T01:21:46;11.20;99.90
46336;DHT22;31365;48.858;8.530;2023-10-31T01:24:14;11.20;99.90
46336;DHT22;31365;48.858;8.530;2023-10-31T01:26:42;11.20;99.90
46336;DHT22;31365;48.858;8.530;2023-10-31T01:29:11;11.20;99.90
46336;DHT22;31365;48.858;8.530;2023-10-31T01:31:40;11.20;99.90
46336;DHT22;31365;48.858;8.530;2023-10-31T01:34:25;11.20;99.90
46336;DHT22;31365;48.858;8.530;2023-10-31T01:36:54;11.20;99.90
46336;DHT22;31365;48.858;8.530;2023-10-31T01:39:22;11.20;99.90
46336;DHT22;31365;48.858;8.530;2023-10-31T01:41:51;11.20;99.90
46336;DHT22;31365;48.858;8.530;2023-10-31T01:44:21;11.20;99.90
46336;DHT22;31365;48.858;8.530;2023-10-31T01:46:51;11.20;99.90
46336;DHT22;31365;48.858;8.530;2023-10-31T01:49:20;11.20;99.90
46336;DHT22;31365;48.858;8.530;2023-10-31T01:51:50;11.20;99.90
46336;DHT22;31365;48.858;8.530;2023-10-31T01:54:20;11.20;99.90
46336;DHT22;31365;48.858;8.530;2023-10-31T01:56:49;11.10;99.90
46336;DHT22;31365;48.858;8.530;2023-10-31T01:59:20;11.10;99.90
46336;DHT22;31365;48.858;8.530;2023-10-31T02:01:49;11.00;99.90
46336;DHT22;31365;48.858;8.530;2023-10-31T02:04:18;11.00;99.90
46336;DHT22;31365;48.858;8.530;2023-10-31T02:06:46;11.10;99.90
46336;DHT22;31365;48.858;8.530;2023-10-31T02:09:14;11.00;99.90
46336;DHT22;31365;48.858;8.530;2023-10-31T02:11:44;11.00;99.90
46336;DHT22;31365;48.858;8.530;2023-10-31T02:14:12;10.90;99.90
46336;DHT22;31365;48.858;8.530;2023-10-31T02:16:40;10.90;99.90
46336;DHT22;31365;48.858;8.530;2023-10-31T02:19:10;10.80;99.90
46336;DHT22;31365;48.858;8.530;2023-10-31T02:21:44;10.80;99.90
46336;DHT22;31365;48.858;8.530;2023-10-31T02:24:12;10.70;99.90
46336;DHT22;31365;48.858;8.530;2023-10-31T02:26:40;10.70;99.90
46336;DHT22;31365;48.858;8.530;2023-10-31T02:29:08;10.70;99.90
46336;DHT22;31365;48.858;8.530;2023-10-31T02:31:36;10.80;99.90
46336;DHT22;31365;48.858;8.530;2023-10-31T02:34:06;10.80;99.90
46336;DHT22;31365;48.858;8.530;2023-10-31T02:36:34;10.80;99.90
46336;DHT22;31365;48.858;8.530;2023-10-31T02:39:04;10.80;99.90
46336;DHT22;31365;48.858;8.530;2023-10-31T02:41:32;10.90;99.90
46336;DHT22;31365;48.858;8.530;2023-10-31T02:44:00;10.90;99.90
46336;DHT22;31365;48.858;8.530;2023-10-31T02:46:29;11.00;99.90
46336;DHT22;31365;48.858;8.530;2023-10-31T02:48:57;11.10;99.90
46336;DHT22;31365;48.858;8.530;2023-10-31T02:51:25;11.10;99.90
46336;DHT22;31365;48.858;8.530;2023-10-31T02:53:55;11.20;99.90
46336;DHT22;31365;48.858;8.530;2023-10-31T02:56:25;11.20;99.90
46336;DHT22;31365;48.858;8.530;2023-10-31T02:58:53;11.20;99.90
46336;DHT22;31365;48.858;8.530;2023-10-31T03:01:22;11.20;99.90
46336;DHT22;31365;48.858;8.530;2023-10-31T03:03:51;11.10;99.90
46336;DHT22;31365;48.858;8.530;2023-10-31T03:06:20;11.20;99.90
46336;DHT22;31365;48.858;8.530;2023-10-31T03:08:49;11.20;99.90
46336;DHT22;31365;48.858;8.530;2023-10-31T03:11:21;11.20;99.90
46336;DHT22;31365;48.858;8.530;2023-10-31T03:13:51;11.20;99.90
46336;DHT22;31365;48.858;8.530;2023-10-31T03:16:21;11.20;99.90
46336;DHT22;31365;48.858;8.530;2023-10-31T03:18:49;11.20;99.90
46336;DHT22;31365;48.858;8.530;2023-10-31T03:21:18;11.10;99.90
46336;DHT22;31365;48.858;8.530;2023-10-31T03:23:48;11.10;99.90
46336;DHT22;31365;48.858;8.530;2023-10-31T03:26:17;11.10;99.90
46336;DHT22;31365;48.858;8.530;2023-10-31T03:28:46;11.10;99.90
46336;DHT22;31365;48.858;8.530;2023-10-31T03:31:16;11.10;99.90
46336;DHT22;31365;48.858;8.530;2023-10-31T03:33:44;11.00;99.90
46336;DHT22;31365;48.858;8.530;2023-10-31T03:36:12;11.00;99.90
46336;DHT22;31365;48.858;8.530;2023-10-31T03:38:40;11.00;99.90
46336;DHT22;31365;48.858;8.530;2023-10-31T03:41:08;10.90;99.90
46336;DHT22;31365;48.858;8.530;2023-10-31T03:43:37;10.90;99.90
46336;DHT22;31365;48.858;8.530;2023-10-31T03:46:05;10.90;99.90
46336;DHT22;31365;48.858;8.530;2023-10-31T03:48:35;10.90;99.90
46336;DHT22;31365;48.858;8.530;2023-10-31T03:51:04;10.90;99.90
46336;DHT22;31365;48.858;8.530;2023-10-31T03:53:32;10.90;99.90
46336;DHT22;31365;48.858;8.530;2023-10-31T03:56:01;10.90;99.90
46336;DHT22;31365;48.858;8.530;2023-10-31T03:58:30;10.90;99.90
46336;DHT22;31365;48.858;8.530;2023-10-31T04:00:58;10.80;99.90
46336;DHT22;31365;48.858;8.530;2023-10-31T04:03:27;10.80;99.90
46336;DHT22;31365;48.858;8.530;2023-10-31T04:05:57;10.80;99.90
46336;DHT22;31365;48.858;8.530;2023-10-31T04:08:25;10.80;99.90
46336;DHT22;31365;48.858;8.530;2023-10-31T04:10:54;10.70;99.90
46336;DHT22;31365;48.858;8.530;2023-10-31T04:13:22;10.70;99.90
46336;DHT22;31365;48.858;8.530;2023-10-31T04:15:51;10.70;99.90
46336;DHT22;31365;48.858;8.530;2023-10-31T04:18:19;10.60;99.90
46336;DHT22;31365;48.858;8.530;2023-10-31T04:20:48;10.60;99.90
46336;DHT22;31365;48.858;8.530;2023-10-31T04:23:17;10.50;99.90
46336;DHT22;31365;48.858;8.530;2023-10-31T04:25:45;10.50;99.90
46336;DHT22;31365;48.858;8.530;2023-10-31T04:28:14;10.50;99.90
46336;DHT22;31365;48.858;8.530;2023-10-31T04:30:42;10.40;99.90
46336;DHT22;31365;48.858;8.530;2023-10-31T04:33:11;10.40;99.90
46336;DHT22;31365;48.858;8.530;2023-10-31T04:35:39;10.30;99.90
46336;DHT22;31365;48.858;8.530;2023-10-31T04:38:07;10.30;99.90
46336;DHT22;31365;48.858;8.530;2023-10-31T04:40:37;10.30;99.90
46336;DHT22;31365;48.858;8.530;2023-10-31T04:43:05;10.40;99.90
46336;DHT22;31365;48.858;8.530;2023-10-31T04:45:33;10.30;99.90
46336;DHT22;31365;48.858;8.530;2023-10-31T04:48:02;10.40;99.90
46336;DHT22;31365;48.858;8.530;2023-10-31T04:50:30;10.40;99.90
46336;DHT22;31365;48.858;8.530;2023-10-31T04:52:59;10.50;99.90
46336;DHT22;31365;48.858;8.530;2023-10-31T04:55:27;10.50;99.90
46336;DHT22;31365;48.858;8.530;2023-10-31T04:57:57;10.50;99.90
46336;DHT22;31365;48.858;8.530;2023-10-31T05:00:26;10.50;99.90
46336;DHT22;31365;48.858;8.530;2023-10-31T05:02:54;10.50;99.90
46336;DHT22;31365;48.858;8.530;2023-10-31T05:05:24;10.50;99.90
46336;DHT22;31365;48.858;8.530;2023-10-31T05:07:52;10.50;99.90
46336;DHT22;31365;48.858;8.530;2023-10-31T05:10:20;10.50;99.90
46336;DHT22;31365;48.858;8.530;2023-10-31T05:12:49;10.50;99.90
46336;DHT22;31365;48.858;8.530;2023-10-31T05:15:20;10.50;99.90
46336;DHT22;31365;48.858;8.530;2023-10-31T05:17:48;10.50;99.90
46336;DHT22;31365;48.858;8.530;2023-10-31T05:20:16;10.50;99.90
46336;DHT22;31365;48.858;8.530;2023-10-31T05:22:45;10.50;99.90
46336;DHT22;31365;48.858;8.530;2023-10-31T05:25:13;10.50;99.90
46336;DHT22;31365;48.858;8.530;2023-10-31T05:27:42;10.50;99.90
46336;DHT22;31365;48.858;8.530;2023-10-31T05:30:13;10.50;99.90
46336;DHT22;31365;48.858;8.530;2023-10-31T05:32:43;10.50;99.90
46336;DHT22;31365;48.858;8.530;2023-10-31T05:35:13;10.50;99.90
46336;DHT22;31365;48.858;8.530;2023-10-31T05:37:41;10.50;99.90
46336;DHT22;31365;48.858;8.530;2023-10-31T05:40:11;10.50;99.90
46336;DHT22;31365;48.858;8.530;2023-10-31T05:42:39;10.50;99.90
46336;DHT22;31365;48.858;8.530;2023-10-31T05:45:08;10.50;99.90
46336;DHT22;31365;48.858;8.530;2023-10-31T05:47:37;10.50;99.90
46336;DHT22;31365;48.858;8.530;2023-10-31T05:50:08;10.50;99.90
46336;DHT22;31365;48.858;8.530;2023-10-31T05:52:36;10.60;99.90
46336;DHT22;31365;48.858;8.530;2023-10-31T05:55:06;10.60;99.90
46336;DHT22;31365;48.858;8.530;2023-10-31T05:57:35;10.60;99.90
46336;DHT22;31365;48.858;8.530;2023-10-31T06:00:04;10.50;99.90
46336;DHT22;31365;48.858;8.530;2023-10-31T06:02:39;10.50;99.90
46336;DHT22;31365;48.858;8.530;2023-10-31T06:05:09;10.50;99.90
46336;DHT22;31365;48.858;8.530;2023-10-31T06:07:38;10.40;99.90
46336;DHT22;31365;48.858;8.530;2023-10-31T06:10:07;10.40;99.90
46336;DHT22;31365;48.858;8.530;2023-10-31T06:12:35;10.40;99.90
46336;DHT22;31365;48.858;8.530;2023-10-31T06:15:05;10.30;99.90
46336;DHT22;31365;48.858;8.530;2023-10-31T06:17:35;10.30;99.90
46336;DHT22;31365;48.858;8.530;2023-10-31T06:20:04;10.40;99.90
46336;DHT22;31365;48.858;8.530;2023-10-31T06:22:36;10.40;99.90
46336;DHT22;31365;48.858;8.530;2023-10-31T06:25:04;10.40;99.90
46336;DHT22;31365;48.858;8.530;2023-10-31T06:27:33;10.40;99.90
46336;DHT22;31365;48.858;8.530;2023-10-31T06:30:02;10.50;99.90
46336;DHT22;31365;48.858;8.530;2023-10-31T06:32:46;10.50;99.90
46336;DHT22;31365;48.858;8.530;2023-10-31T06:35:14;10.50;99.90
46336;DHT22;31365;48.858;8.530;2023-10-31T06:37:44;10.50;99.90
46336;DHT22;31365;48.858;8.530;2023-10-31T06:40:13;10.50;99.90
46336;DHT22;31365;48.858;8.530;2023-10-31T06:42:41;10.50;99.90
46336;DHT22;31365;48.858;8.530;2023-10-31T06:45:09;10.50;99.90
46336;DHT22;31365;48.858;8.530;2023-10-31T06:47:37;10.50;99.90
46336;DHT22;31365;48.858;8.530;2023-10-31T06:50:07;10.60;99.90
46336;DHT22;31365;48.858;8.530;2023-10-31T06:52:36;10.60;99.90
46336;DHT22;31365;48.858;8.530;2023-10-31T06:55:07;10.60;99.90
46336;DHT22;31365;48.858;8.530;2023-10-31T06:57:36;10.60;99.90
46336;DHT22;31365;48.858;8.530;2023-10-31T07:00:06;10.60;99.90
46336;DHT22;31365;48.858;8.530;2023-10-31T07:02:36;10.60;99.90
46336;DHT22;31365;48.858;8.530;2023-10-31T07:05:05;10.60;99.90
46336;DHT22;31365;48.858;8.530;2023-10-31T07:07:35;10.60;99.90
46336;DHT22;31365;48.858;8.530;2023-10-31T07:10:05;10.70;99.90
46336;DHT22;31365;48.858;8.530;2023-10-31T07:12:35;10.70;99.90
46336;DHT22;31365;48.858;8.530;2023-10-31T07:15:04;10.80;99.90
46336;DHT22;31365;48.858;8.530;2023-10-31T07:17:33;10.80;99.90
46336;DHT22;31365;48.858;8.530;2023-10-31T07:20:03;10.80;99.90
46336;DHT22;31365;48.858;8.530;2023-10-31T07:22:33;10.80;99.90
46336;DHT22;31365;48.858;8.530;2023-10-31T07:25:03;10.90;99.90
46336;DHT22;31365;48.858;8.530;2023-10-31T07:27:33;10.90;99.90
46336;DHT22;31365;48.858;8.530;2023-10-31T07:30:02;10.90;99.90
46336;DHT22;31365;48.858;8.530;2023-10-31T07:32:31;11.00;99.90
46336;DHT22;31365;48.858;8.530;2023-10-31T07:35:00;11.00;99.90
46336;DHT22;31365;48.858;8.530;2023-10-31T07:37:29;11.10;99.90
46336;DHT22;31365;48.858;8.530;2023-10-31T07:40:02;11.20;99.90
46336;DHT22;31365;48.858;8.530;2023-10-31T07:42:32;11.20;99.90
46336;DHT22;31365;48.858;8.530;2023-10-31T07:45:01;11.30;99.90
46336;DHT22;31365;48.858;8.530;2023-10-31T07:47:29;11.30;99.90
46336;DHT22;31365;48.858;8.530;2023-10-31T07:49:57;11.30;99.90
46336;DHT22;31365;48.858;8.530;2023-10-31T07:52:26;11.30;99.90
46336;DHT22;31365;48.858;8.530;2023-10-31T07:54:54;11.40;99.90
46336;DHT22;31365;48.858;8.530;2023-10-31T07:57:23;11.50;99.90
46336;DHT22;31365;48.858;8.530;2023-10-31T07:59:52;11.50;99.90
46336;DHT22;31365;48.858;8.530;2023-10-31T08:02:20;11.50;99.90
46336;DHT22;31365;48.858;8.530;2023-10-31T08:04:49;11.50;99.90
46336;DHT22;31365;48.858;8.530;2023-10-31T08:07:17;11.50;99.90
46336;DHT22;31365;48.858;8.530;2023-10-31T08:09:45;11.60;99.90
46336;DHT22;31365;48.858;8.530;2023-10-31T08:12:13;11.60;99.90
46336;DHT22;31365;48.858;8.530;2023-10-31T08:14:41;11.70;99.90
46336;DHT22;31365;48.858;8.530;2023-10-31T08:17:11;11.80;99.90
46336;DHT22;31365;48.858;8.530;2023-10-31T08:19:39;11.80;99.90
46336;DHT22;31365;48.858;8.530;2023-10-31T08:22:08;11.90;99.90
46336;DHT22;31365;48.858;8.530;2023-10-31T08:24:36;11.90;99.90
46336;DHT22;31365;48.858;8.530;2023-10-31T08:27:05;12.00;99.90
46336;DHT22;31365;48.858;8.530;2023-10-31T08:29:34;12.00;99.90
46336;DHT22;31365;48.858;8.530;2023-10-31T08:32:02;12.00;99.90
46336;DHT22;31365;48.858;8.530;2023-10-31T08:34:33;12.00;99.90
46336;DHT22;31365;48.858;8.530;2023-10-31T08:37:02;12.10;99.90
46336;DHT22;31365;48.858;8.530;2023-10-31T08:39:30;12.20;99.90
46336;DHT22;31365;48.858;8.530;2023-10-31T08:41:58;12.30;99.90
46336;DHT22;31365;48.858;8.530;2023-10-31T08:44:27;12.40;99.90
46336;DHT22;31365;48.858;8.530;2023-10-31T08:46:55;12.40;99.90
46336;DHT22;31365;48.858;8.530;2023-10-31T08:49:24;12.40;99.90
46336;DHT22;31365;48.858;8.530;2023-10-31T08:51:53;12.50;99.90
46336;DHT22;31365;48.858;8.530;2023-10-31T08:54:21;12.50;99.90
46336;DHT22;31365;48.858;8.530;2023-10-31T08:56:50;12.50;99.90
46336;DHT22;31365;48.858;8.530;2023-10-31T08:59:18;12.50;99.90
46336;DHT22;31365;48.858;8.530;2023-10-31T09:01:46;12.50;99.90
46336;DHT22;31365;48.858;8.530;2023-10-31T09:04:15;12.50;99.90
46336;DHT22;31365;48.858;8.530;2023-10-31T09:06:43;12.50;99.90
46336;DHT22;31365;48.858;8.530;2023-10-31T09:09:13;12.50;99.90
46336;DHT22;31365;48.858;8.530;2023-10-31T09:11:41;12.60;99.90
46336;DHT22;31365;48.858;8.530;2023-10-31T09:14:09;12.60;99.90
46336;DHT22;31365;48.858;8.530;2023-10-31T09:16:38;12.70;99.90
46336;DHT22;31365;48.858;8.530;2023-10-31T09:19:06;12.80;99.90
46336;DHT22;31365;48.858;8.530;2023-10-31T09:21:35;12.90;99.90
46336;DHT22;31365;48.858;8.530;2023-10-31T09:24:04;13.00;99.90
46336;DHT22;31365;48.858;8.530;2023-10-31T09:26:34;13.20;99.90
46336;DHT22;31365;48.858;8.530;2023-10-31T09:29:03;13.30;99.90
46336;DHT22;31365;48.858;8.530;2023-10-31T09:31:31;13.30;99.90
46336;DHT22;31365;48.858;8.530;2023-10-31T09:34:00;13.30;99.90
46336;DHT22;31365;48.858;8.530;2023-10-31T09:36:32;13.20;99.90
46336;DHT22;31365;48.858;8.530;2023-10-31T09:39:01;13.10;99.90
46336;DHT22;31365;48.858;8.530;2023-10-31T09:41:30;13.10;99.90
46336;DHT22;31365;48.858;8.530;2023-10-31T09:44:01;13.00;99.90
46336;DHT22;31365;48.858;8.530;2023-10-31T09:46:30;13.00;99.90
46336;DHT22;31365;48.858;8.530;2023-10-31T09:48:59;13.20;99.90
46336;DHT22;31365;48.858;8.530;2023-10-31T09:51:28;13.40;99.90
46336;DHT22;31365;48.858;8.530;2023-10-31T09:53:59;13.40;99.90
46336;DHT22;31365;48.858;8.530;2023-10-31T09:56:30;13.40;99.90
46336;DHT22;31365;48.858;8.530;2023-10-31T09:59:03;13.40;99.90
46336;DHT22;31365;48.858;8.530;2023-10-31T10:01:33;13.30;99.90
46336;DHT22;31365;48.858;8.530;2023-10-31T10:04:01;13.20;99.90
46336;DHT22;31365;48.858;8.530;2023-10-31T10:06:30;13.30;99.90
46336;DHT22;31365;48.858;8.530;2023-10-31T10:09:00;13.40;99.90
46336;DHT22;31365;48.858;8.530;2023-10-31T10:11:31;13.50;99.90
46336;DHT22;31365;48.858;8.530;2023-10-31T10:14:02;13.50;99.90
46336;DHT22;31365;48.858;8.530;2023-10-31T10:16:36;13.40;99.90
46336;DHT22;31365;48.858;8.530;2023-10-31T10:19:15;13.40;99.90
46336;DHT22;31365;48.858;8.530;2023-10-31T10:21:47;13.50;99.90
46336;DHT22;31365;48.858;8.530;2023-10-31T10:24:17;13.70;99.90
46336;DHT22;31365;48.858;8.530;2023-10-31T10:26:46;13.80;99.90
46336;DHT22;31365;48.858;8.530;2023-10-31T10:29:17;13.80;99.90
46336;DHT22;31365;48.858;8.530;2023-10-31T10:31:45;13.80;99.90
46336;DHT22;31365;48.858;8.530;2023-10-31T10:34:14;13.90;99.90
46336;DHT22;31365;48.858;8.530;2023-10-31T10:36:47;14.00;99.90
46336;DHT22;31365;48.858;8.530;2023-10-31T10:39:21;14.20;99.90
46336;DHT22;31365;48.858;8.530;2023-10-31T10:41:53;14.20;99.90
46336;DHT22;31365;48.858;8.530;2023-10-31T10:44:31;14.50;99.90
46336;DHT22;31365;48.858;8.530;2023-10-31T10:47:03;15.00;99.90
46336;DHT22;31365;48.858;8.530;2023-10-31T10:49:33;15.30;99.90
46336;DHT22;31365;48.858;8.530;2023-10-31T10:52:14;15.50;99.90
46336;DHT22;31365;48.858;8.530;2023-10-31T10:54:52;15.60;99.90
46336;DHT22;31365;48.858;8.530;2023-10-31T10:57:34;15.80;99.90
46336;DHT22;31365;48.858;8.530;2023-10-31T11:00:09;15.80;99.90
46336;DHT22;31365;48.858;8.530;2023-10-31T11:02:40;16.00;99.90
46336;DHT22;31365;48.858;8.530;2023-10-31T11:05:11;16.10;99.90
46336;DHT22;31365;48.858;8.530;2023-10-31T11:07:42;16.40;99.90
46336;DHT22;31365;48.858;8.530;2023-10-31T11:10:11;16.80;99.90
46336;DHT22;31365;48.858;8.530;2023-10-31T11:12:39;16.80;99.90
46336;DHT22;31365;48.858;8.530;2023-10-31T11:15:14;16.60;99.90
46336;DHT22;31365;48.858;8.530;2023-10-31T11:17:45;16.20;99.90
46336;DHT22;31365;48.858;8.530;2023-10-31T11:20:15;15.70;99.90
46336;DHT22;31365;48.858;8.530;2023-10-31T11:22:46;15.50;99.90
46336;DHT22;31365;48.858;8.530;2023-10-31T11:25:18;15.80;99.90
46336;DHT22;31365;48.858;8.530;2023-10-31T11:28:11;16.30;99.90
46336;DHT22;31365;48.858;8.530;2023-10-31T11:30:42;16.50;99.90
46336;DHT22;31365;48.858;8.530;2023-10-31T11:33:12;16.60;99.90
46336;DHT22;31365;48.858;8.530;2023-10-31T11:35:41;16.60;99.90
46336;DHT22;31365;48.858;8.530;2023-10-31T11:38:12;16.10;99.90
46336;DHT22;31365;48.858;8.530;2023-10-31T11:40:58;16.30;99.90
46336;DHT22;31365;48.858;8.530;2023-10-31T11:43:36;16.80;99.90
46336;DHT22;31365;48.858;8.530;2023-10-31T11:46:22;17.00;99.90
46336;DHT22;31365;48.858;8.530;2023-10-31T11:48:54;17.30;99.90
46336;DHT22;31365;48.858;8.530;2023-10-31T11:51:24;17.00;99.90
46336;DHT22;31365;48.858;8.530;2023-10-31T11:53:53;16.70;99.90
46336;DHT22;31365;48.858;8.530;2023-10-31T11:56:22;16.20;99.90
46336;DHT22;31365;48.858;8.530;2023-10-31T11:58:58;15.90;99.90
46336;DHT22;31365;48.858;8.530;2023-10-31T12:01:28;15.50;99.90
46336;DHT22;31365;48.858;8.530;2023-10-31T12:03:57;15.10;99.90
46336;DHT22;31365;48.858;8.530;2023-10-31T12:06:26;14.80;99.90
46336;DHT22;31365;48.858;8.530;2023-10-31T12:08:59;14.50;99.90
46336;DHT22;31365;48.858;8.530;2023-10-31T12:11:28;14.30;99.90
46336;DHT22;31365;48.858;8.530;2023-10-31T12:13:59;14.10;99.90
46336;DHT22;31365;48.858;8.530;2023-10-31T12:16:33;14.00;99.90
46336;DHT22;31365;48.858;8.530;2023-10-31T12:19:03;14.00;99.90
46336;DHT22;31365;48.858;8.530;2023-10-31T12:21:40;14.80;99.90
46336;DHT22;31365;48.858;8.530;2023-10-31T12:24:11;15.70;99.90
46336;DHT22;31365;48.858;8.530;2023-10-31T12:26:40;15.90;99.90
46336;DHT22;31365;48.858;8.530;2023-10-31T12:29:11;15.90;99.90
46336;DHT22;31365;48.858;8.530;2023-10-31T12:31:44;16.10;99.90
46336;DHT22;31365;48.858;8.530;2023-10-31T12:34:14;16.10;99.90
46336;DHT22;31365;48.858;8.530;2023-10-31T12:36:44;16.00;99.90
46336;DHT22;31365;48.858;8.530;2023-10-31T12:39:15;16.00;99.90
46336;DHT22;31365;48.858;8.530;2023-10-31T12:41:45;15.80;99.90
46336;DHT22;31365;48.858;8.530;2023-10-31T12:44:17;15.70;99.90
46336;DHT22;31365;48.858;8.530;2023-10-31T12:46:52;15.40;99.90
46336;DHT22;31365;48.858;8.530;2023-10-31T12:49:21;15.30;99.90
46336;DHT22;31365;48.858;8.530;2023-10-31T12:51:58;15.30;99.90
46336;DHT22;31365;48.858;8.530;2023-10-31T12:54:28;15.10;99.90
46336;DHT22;31365;48.858;8.530;2023-10-31T12:57:01;15.10;99.90
46336;DHT22;31365;48.858;8.530;2023-10-31T12:59:31;15.50;99.90
46336;DHT22;31365;48.858;8.530;2023-10-31T13:02:02;15.90;99.90
46336;DHT22;31365;48.858;8.530;2023-10-31T13:04:32;16.20;99.90
46336;DHT22;31365;48.858;8.530;2023-10-31T13:07:02;17.10;99.90
46336;DHT22;31365;48.858;8.530;2023-10-31T13:09:32;17.60;99.90
46336;DHT22;31365;48.858;8.530;2023-10-31T13:12:03;17.30;99.90
46336;DHT22;31365;48.858;8.530;2023-10-31T13:14:33;16.80;99.90
46336;DHT22;31365;48.858;8.530;2023-10-31T13:17:03;16.10;99.90
46336;DHT22;31365;48.858;8.530;2023-10-31T13:19:32;15.60;99.90
46336;DHT22;31365;48.858;8.530;2023-10-31T13:22:00;15.40;99.90
46336;DHT22;31365;48.858;8.530;2023-10-31T13:24:28;15.20;99.90
46336;DHT22;31365;48.858;8.530;2023-10-31T13:26:58;15.40;99.90
46336;DHT22;31365;48.858;8.530;2023-10-31T13:29:26;15.40;99.90
46336;DHT22;31365;48.858;8.530;2023-10-31T13:31:55;15.30;99.90
46336;DHT22;31365;48.858;8.530;2023-10-31T13:34:25;15.40;99.90
46336;DHT22;31365;48.858;8.530;2023-10-31T13:36:53;15.40;99.90
46336;DHT22;31365;48.858;8.530;2023-10-31T13:39:21;15.20;99.90
46336;DHT22;31365;48.858;8.530;2023-10-31T13:41:50;15.00;99.90
46336;DHT22;31365;48.858;8.530;2023-10-31T13:44:19;14.80;99.90
46336;DHT22;31365;48.858;8.530;2023-10-31T13:46:47;14.60;99.90
46336;DHT22;31365;48.858;8.530;2023-10-31T13:49:16;14.50;99.90
46336;DHT22;31365;48.858;8.530;2023-10-31T13:51:46;14.40;99.90
46336;DHT22;31365;48.858;8.530;2023-10-31T13:54:16;14.30;99.90
46336;DHT22;31365;48.858;8.530;2023-10-31T13:56:44;14.20;99.90
46336;DHT22;31365;48.858;8.530;2023-10-31T13:59:14;14.00;99.90
46336;DHT22;31365;48.858;8.530;2023-10-31T14:01:42;13.90;99.90
46336;DHT22;31365;48.858;8.530;2023-10-31T14:04:13;13.80;99.90
46336;DHT22;31365;48.858;8.530;2023-10-31T14:06:42;13.70;99.90
46336;DHT22;31365;48.858;8.530;2023-10-31T14:09:12;13.60;99.90
46336;DHT22;31365;48.858;8.530;2023-10-31T14:11:41;13.40;99.90
46336;DHT22;31365;48.858;8.530;2023-10-31T14:14:10;13.30;99.90
46336;DHT22;31365;48.858;8.530;2023-10-31T14:16:40;13.30;99.90
46336;DHT22;31365;48.858;8.530;2023-10-31T14:19:11;13.20;99.90
46336;DHT22;31365;48.858;8.530;2023-10-31T14:21:40;13.10;99.90
46336;DHT22;31365;48.858;8.530;2023-10-31T14:24:09;13.00;99.90
46336;DHT22;31365;48.858;8.530;2023-10-31T14:26:40;12.90;99.90
46336;DHT22;31365;48.858;8.530;2023-10-31T14:29:11;12.80;99.90
46336;DHT22;31365;48.858;8.530;2023-10-31T14:31:40;12.60;99.90
46336;DHT22;31365;48.858;8.530;2023-10-31T14:34:09;12.60;99.90
46336;DHT22;31365;48.858;8.530;2023-10-31T14:36:38;12.50;99.90
46336;DHT22;31365;48.858;8.530;2023-10-31T14:39:07;12.50;99.90
46336;DHT22;31365;48.858;8.530;2023-10-31T14:41:36;12.50;99.90
46336;DHT22;31365;48.858;8.530;2023-10-31T14:44:06;12.40;99.90
46336;DHT22;31365;48.858;8.530;2023-10-31T14:46:35;12.40;99.90
46336;DHT22;31365;48.858;8.530;2023-10-31T14:49:04;12.30;99.90
46336;DHT22;31365;48.858;8.530;2023-10-31T14:51:32;12.30;99.90
46336;DHT22;31365;48.858;8.530;2023-10-31T14:54:01;12.30;99.90
46336;DHT22;31365;48.858;8.530;2023-10-31T14:56:29;12.30;99.90
46336;DHT22;31365;48.858;8.530;2023-10-31T14:58:59;12.20;99.90
46336;DHT22;31365;48.858;8.530;2023-10-31T15:01:30;12.20;99.90
46336;DHT22;31365;48.858;8.530;2023-10-31T15:03:59;12.20;99.90
46336;DHT22;31365;48.858;8.530;2023-10-31T15:06:28;12.10;99.90
46336;DHT22;31365;48.858;8.530;2023-10-31T15:08:56;12.10;99.90
46336;DHT22;31365;48.858;8.530;2023-10-31T15:11:25;12.10;99.90
46336;DHT22;31365;48.858;8.530;2023-10-31T15:13:53;12.10;99.90
46336;DHT22;31365;48.858;8.530;2023-10-31T15:16:22;12.10;99.90
46336;DHT22;31365;48.858;8.530;2023-10-31T15:18:51;12.10;99.90
46336;DHT22;31365;48.858;8.530;2023-10-31T15:21:20;12.20;99.90
46336;DHT22;31365;48.858;8.530;2023-10-31T15:23:48;12.20;99.90
46336;DHT22;31365;48.858;8.530;2023-10-31T15:26:20;12.10;99.90
46336;DHT22;31365;48.858;8.530;2023-10-31T15:28:52;12.20;99.90
46336;DHT22;31365;48.858;8.530;2023-10-31T15:31:20;12.20;99.90
46336;DHT22;31365;48.858;8.530;2023-10-31T15:33:49;12.20;99.90
46336;DHT22;31365;48.858;8.530;2023-10-31T15:36:19;12.20;99.90
46336;DHT22;31365;48.858;8.530;2023-10-31T15:38:47;12.10;99.90
46336;DHT22;31365;48.858;8.530;2023-10-31T15:41:17;12.10;99.90
46336;DHT22;31365;48.858;8.530;2023-10-31T15:43:48;12.20;99.90
46336;DHT22;31365;48.858;8.530;2023-10-31T15:46:17;12.10;99.90